sensor_id;sensor_type;location;lat;lon;timestamp;pressure;altitude;pressure_sealevel;temperature;humidity
14242;BME280;7205;50.864;12.766;2023-02-19T00:02:06;97634.03;;;10.04;96.86
14242;BME280;7205;50.864;12.766;2023-02-19T00:04:34;97629.59;;;10.04;96.18
14242;BME280;7205;50.864;12.766;2023-02-19T00:07:01;97628.75;;;10.04;95.71
14242;BME280;7205;50.864;12.766;2023-02-19T00:09:28;97623.47;;;10.04;95.80
14242;BME280;7205;50.864;12.766;2023-02-19T00:11:55;97627.09;;;10.03;95.54
14242;BME280;7205;50.864;12.766;2023-02-19T00:14:22;97629.09;;;10.01;94.21
14242;BME280;7205;50.864;12.766;2023-02-19T00:16:49;97625.63;;;10.00;94.01
14242;BME280;7205;50.864;12.766;2023-02-19T00:19:17;97616.91;;;10.00;94.25
14242;BME280;7205;50.864;12.766;2023-02-19T00:21:45;97609.16;;;9.98;93.62
14242;BME280;7205;50.864;12.766;2023-02-19T00:24:13;97608.50;;;9.96;92.76
14242;BME280;7205;50.864;12.766;2023-02-19T00:26:41;97610.34;;;9.96;92.76
14242;BME280;7205;50.864;12.766;2023-02-19T00:29:11;97601.59;;;9.95;92.46
14242;BME280;7205;50.864;12.766;2023-02-19T00:31:38;97598.94;;;9.95;92.37
14242;BME280;7205;50.864;12.766;2023-02-19T00:34:05;97599.97;;;9.94;91.87
14242;BME280;7205;50.864;12.766;2023-02-19T00:36:36;97594.34;;;9.97;91.94
14242;BME280;7205;50.864;12.766;2023-02-19T00:39:05;97591.69;;;9.97;92.27
14242;BME280;7205;50.864;12.766;2023-02-19T00:41:33;97595.97;;;9.98;91.38
14242;BME280;7205;50.864;12.766;2023-02-19T00:44:02;97593.97;;;10.00;91.60
14242;BME280;7205;50.864;12.766;2023-02-19T00:46:31;97593.97;;;10.00;91.74
14242;BME280;7205;50.864;12.766;2023-02-19T00:48:59;97587.06;;;9.99;91.05
14242;BME280;7205;50.864;12.766;2023-02-19T00:51:28;97580.97;;;9.99;91.32
14242;BME280;7205;50.864;12.766;2023-02-19T00:53:55;97580.13;;;9.98;91.16
14242;BME280;7205;50.864;12.766;2023-02-19T00:56:23;97586.25;;;9.99;90.70
14242;BME280;7205;50.864;12.766;2023-02-19T00:58:50;97590.69;;;9.98;91.62
14242;BME280;7205;50.864;12.766;2023-02-19T01:01:18;97582.13;;;9.96;90.94
14242;BME280;7205;50.864;12.766;2023-02-19T01:03:45;97575.56;;;9.92;92.00
14242;BME280;7205;50.864;12.766;2023-02-19T01:06:14;97573.59;;;9.86;92.05
14242;BME280;7205;50.864;12.766;2023-02-19T01:08:42;97573.47;;;9.80;92.68
14242;BME280;7205;50.864;12.766;2023-02-19T01:11:09;97574.00;;;9.75;93.80
14242;BME280;7205;50.864;12.766;2023-02-19T01:13:38;97572.84;;;9.70;94.70
14242;BME280;7205;50.864;12.766;2023-02-19T01:16:09;97574.03;;;9.67;95.44
14242;BME280;7205;50.864;12.766;2023-02-19T01:18:36;97563.19;;;9.62;96.16
14242;BME280;7205;50.864;12.766;2023-02-19T01:21:05;97554.63;;;9.60;97.12
14242;BME280;7205;50.864;12.766;2023-02-19T01:23:32;97544.25;;;9.59;97.23
14242;BME280;7205;50.864;12.766;2023-02-19T01:26:03;97532.88;;;9.58;98.06
14242;BME280;7205;50.864;12.766;2023-02-19T01:28:30;97531.25;;;9.57;98.70
14242;BME280;7205;50.864;12.766;2023-02-19T01:31:01;97535.03;;;9.55;99.92
14242;BME280;7205;50.864;12.766;2023-02-19T01:33:28;97524.47;;;9.55;100.00
14242;BME280;7205;50.864;12.766;2023-02-19T01:35:55;97518.41;;;9.54;100.00
14242;BME280;7205;50.864;12.766;2023-02-19T01:38:22;97514.94;;;9.54;100.00
14242;BME280;7205;50.864;12.766;2023-02-19T01:40:54;97508.50;;;9.56;100.00
14242;BME280;7205;50.864;12.766;2023-02-19T01:43:21;97507.69;;;9.56;100.00
14242;BME280;7205;50.864;12.766;2023-02-19T01:45:48;97504.88;;;9.57;100.00
14242;BME280;7205;50.864;12.766;2023-02-19T01:48:19;97502.25;;;9.57;100.00
14242;BME280;7205;50.864;12.766;2023-02-19T01:50:51;97489.41;;;9.54;100.00
14242;BME280;7205;50.864;12.766;2023-02-19T01:53:23;97480.84;;;9.52;100.00
14242;BME280;7205;50.864;12.766;2023-02-19T01:55:55;97492.84;;;9.55;100.00
14242;BME280;7205;50.864;12.766;2023-02-19T01:58:25;97496.50;;;9.54;100.00
14242;BME280;7205;50.864;12.766;2023-02-19T02:00:53;97497.31;;;9.54;100.00
14242;BME280;7205;50.864;12.766;2023-02-19T02:03:22;97477.03;;;9.55;100.00
14242;BME280;7205;50.864;12.766;2023-02-19T02:05:58;97473.75;;;9.53;100.00
14242;BME280;7205;50.864;12.766;2023-02-19T02:08:27;97463.22;;;9.53;100.00
14242;BME280;7205;50.864;12.766;2023-02-19T02:11:13;97462.59;;;9.51;100.00
14242;BME280;7205;50.864;12.766;2023-02-19T02:13:40;97460.91;;;9.50;100.00
14242;BME280;7205;50.864;12.766;2023-02-19T02:16:18;97457.31;;;9.51;100.00
14242;BME280;7205;50.864;12.766;2023-02-19T02:18:57;97453.84;;;9.50;100.00
14242;BME280;7205;50.864;12.766;2023-02-19T02:24:51;97441.50;;;9.51;100.00
14242;BME280;7205;50.864;12.766;2023-02-19T02:27:40;97430.97;;;9.51;100.00
14242;BME280;7205;50.864;12.766;2023-02-19T02:30:26;97429.78;;;9.53;100.00
14242;BME280;7205;50.864;12.766;2023-02-19T02:33:02;97431.75;;;9.51;100.00
14242;BME280;7205;50.864;12.766;2023-02-19T02:35:33;97420.25;;;9.52;100.00
14242;BME280;7205;50.864;12.766;2023-02-19T02:38:04;97424.50;;;9.53;100.00
14242;BME280;7205;50.864;12.766;2023-02-19T02:40:33;97408.69;;;9.53;100.00
14242;BME280;7205;50.864;12.766;2023-02-19T02:43:00;97401.78;;;9.52;100.00
14242;BME280;7205;50.864;12.766;2023-02-19T02:45:31;97409.69;;;9.52;100.00
14242;BME280;7205;50.864;12.766;2023-02-19T02:48:22;97399.16;;;9.52;100.00
14242;BME280;7205;50.864;12.766;2023-02-19T02:50:54;97398.97;;;9.54;100.00
14242;BME280;7205;50.864;12.766;2023-02-19T02:53:26;97401.63;;;9.54;100.00
14242;BME280;7205;50.864;12.766;2023-02-19T02:56:13;97400.97;;;9.52;100.00
14242;BME280;7205;50.864;12.766;2023-02-19T02:58:41;97401.97;;;9.51;100.00
14242;BME280;7205;50.864;12.766;2023-02-19T03:01:15;97396.69;;;9.51;100.00
14242;BME280;7205;50.864;12.766;2023-02-19T03:04:02;97387.78;;;9.52;100.00
14242;BME280;7205;50.864;12.766;2023-02-19T03:06:33;97383.16;;;9.54;100.00
14242;BME280;7205;50.864;12.766;2023-02-19T03:09:08;97386.94;;;9.51;100.00
14242;BME280;7205;50.864;12.766;2023-02-19T03:11:39;97383.16;;;9.54;100.00
14242;BME280;7205;50.864;12.766;2023-02-19T03:14:30;97370.97;;;9.53;100.00
14242;BME280;7205;50.864;12.766;2023-02-19T03:17:23;97374.59;;;9.52;100.00
14242;BME280;7205;50.864;12.766;2023-02-19T03:20:11;97362.91;;;9.54;100.00
14242;BME280;7205;50.864;12.766;2023-02-19T03:22:42;97367.16;;;9.55;100.00
14242;BME280;7205;50.864;12.766;2023-02-19T03:25:12;97366.16;;;9.56;100.00
14242;BME280;7205;50.864;12.766;2023-02-19T03:28:03;97363.34;;;9.58;100.00
14242;BME280;7205;50.864;12.766;2023-02-19T03:30:33;97356.09;;;9.60;100.00
14242;BME280;7205;50.864;12.766;2023-02-19T03:33:06;97350.66;;;9.61;100.00
14242;BME280;7205;50.864;12.766;2023-02-19T03:35:39;97354.56;;;9.65;100.00
14242;BME280;7205;50.864;12.766;2023-02-19T03:38:11;97344.88;;;9.66;100.00
14242;BME280;7205;50.864;12.766;2023-02-19T03:40:52;97351.75;;;9.67;100.00
14242;BME280;7205;50.864;12.766;2023-02-19T03:43:23;97349.78;;;9.69;100.00
14242;BME280;7205;50.864;12.766;2023-02-19T03:45:58;97346.97;;;9.70;100.00
14242;BME280;7205;50.864;12.766;2023-02-19T03:48:32;97341.50;;;9.72;100.00
14242;BME280;7205;50.864;12.766;2023-02-19T03:51:11;97338.69;;;9.73;100.00
14242;BME280;7205;50.864;12.766;2023-02-19T03:53:48;97335.06;;;9.74;100.00
14242;BME280;7205;50.864;12.766;2023-02-19T03:56:23;97340.16;;;9.76;100.00
14242;BME280;7205;50.864;12.766;2023-02-19T03:58:57;97334.72;;;9.77;100.00
14242;BME280;7205;50.864;12.766;2023-02-19T04:01:30;97335.50;;;9.78;100.00
14242;BME280;7205;50.864;12.766;2023-02-19T04:04:07;97330.72;;;9.81;100.00
14242;BME280;7205;50.864;12.766;2023-02-19T04:06:36;97330.53;;;9.83;99.77
14242;BME280;7205;50.864;12.766;2023-02-19T04:09:08;97319.00;;;9.84;99.53
14242;BME280;7205;50.864;12.766;2023-02-19T04:11:37;97325.09;;;9.84;99.13
14242;BME280;7205;50.864;12.766;2023-02-19T04:14:08;97318.81;;;9.85;99.10
14242;BME280;7205;50.864;12.766;2023-02-19T04:16:39;97313.38;;;9.87;98.59
14242;BME280;7205;50.864;12.766;2023-02-19T04:19:11;97306.66;;;9.84;98.41
14242;BME280;7205;50.864;12.766;2023-02-19T04:21:40;97319.47;;;9.87;98.14
14242;BME280;7205;50.864;12.766;2023-02-19T04:24:10;97317.63;;;9.88;98.28
14242;BME280;7205;50.864;12.766;2023-02-19T04:26:39;97320.63;;;9.85;98.49
14242;BME280;7205;50.864;12.766;2023-02-19T04:29:06;97333.00;;;9.84;98.56
14242;BME280;7205;50.864;12.766;2023-02-19T04:31:34;97331.81;;;9.87;98.73
14242;BME280;7205;50.864;12.766;2023-02-19T04:34:01;97334.47;;;9.87;98.42
14242;BME280;7205;50.864;12.766;2023-02-19T04:36:30;97329.56;;;9.84;97.35
14242;BME280;7205;50.864;12.766;2023-02-19T04:38:57;97342.56;;;9.85;98.09
14242;BME280;7205;50.864;12.766;2023-02-19T04:41:24;97324.09;;;9.85;98.17
14242;BME280;7205;50.864;12.766;2023-02-19T04:43:51;97328.53;;;9.85;98.09
14242;BME280;7205;50.864;12.766;2023-02-19T04:46:18;97323.72;;;9.88;97.62
14242;BME280;7205;50.864;12.766;2023-02-19T04:48:44;97334.09;;;9.90;97.01
14242;BME280;7205;50.864;12.766;2023-02-19T04:51:11;97333.31;;;9.89;97.07
14242;BME280;7205;50.864;12.766;2023-02-19T04:53:40;97327.00;;;9.90;96.85
14242;BME280;7205;50.864;12.766;2023-02-19T04:56:11;97326.00;;;9.91;97.13
14242;BME280;7205;50.864;12.766;2023-02-19T04:58:39;97323.38;;;9.91;96.19
14242;BME280;7205;50.864;12.766;2023-02-19T05:01:07;97319.75;;;9.92;96.32
14242;BME280;7205;50.864;12.766;2023-02-19T05:03:34;97323.19;;;9.93;96.38
14242;BME280;7205;50.864;12.766;2023-02-19T05:06:02;97325.81;;;9.93;96.64
14242;BME280;7205;50.864;12.766;2023-02-19T05:08:29;97322.38;;;9.92;96.85
14242;BME280;7205;50.864;12.766;2023-02-19T05:10:58;97307.38;;;9.93;96.53
14242;BME280;7205;50.864;12.766;2023-02-19T05:13:25;97314.94;;;9.96;96.21
14242;BME280;7205;50.864;12.766;2023-02-19T05:15:56;97330.41;;;9.99;95.57
14242;BME280;7205;50.864;12.766;2023-02-19T05:18:23;97334.47;;;10.01;95.53
14242;BME280;7205;50.864;12.766;2023-02-19T05:20:50;97322.31;;;10.00;95.35
14242;BME280;7205;50.864;12.766;2023-02-19T05:23:18;97329.22;;;10.01;96.08
14242;BME280;7205;50.864;12.766;2023-02-19T05:25:45;97331.38;;;9.98;94.96
14242;BME280;7205;50.864;12.766;2023-02-19T05:28:14;97340.66;;;9.94;95.75
14242;BME280;7205;50.864;12.766;2023-02-19T05:30:44;97329.19;;;9.87;96.19
14242;BME280;7205;50.864;12.766;2023-02-19T05:33:11;97339.63;;;9.80;96.53
14242;BME280;7205;50.864;12.766;2023-02-19T05:35:40;97336.69;;;9.75;96.29
14242;BME280;7205;50.864;12.766;2023-02-19T05:38:08;97328.50;;;9.70;97.30
14242;BME280;7205;50.864;12.766;2023-02-19T05:40:35;97350.31;;;9.64;97.61
14242;BME280;7205;50.864;12.766;2023-02-19T05:43:02;97353.47;;;9.60;98.32
14242;BME280;7205;50.864;12.766;2023-02-19T05:45:31;97353.47;;;9.60;98.90
14242;BME280;7205;50.864;12.766;2023-02-19T05:47:57;97364.34;;;9.57;99.96
14242;BME280;7205;50.864;12.766;2023-02-19T05:50:25;97382.97;;;9.55;99.74
14242;BME280;7205;50.864;12.766;2023-02-19T05:52:55;97377.41;;;9.50;100.00
14242;BME280;7205;50.864;12.766;2023-02-19T05:55:21;97386.66;;;9.46;100.00
14242;BME280;7205;50.864;12.766;2023-02-19T05:57:48;97386.34;;;9.41;100.00
14242;BME280;7205;50.864;12.766;2023-02-19T06:00:17;97401.88;;;9.36;100.00
14242;BME280;7205;50.864;12.766;2023-02-19T06:02:46;97407.84;;;9.30;100.00
14242;BME280;7205;50.864;12.766;2023-02-19T06:05:13;97411.00;;;9.26;100.00
14242;BME280;7205;50.864;12.766;2023-02-19T06:07:40;97410.00;;;9.27;100.00
14242;BME280;7205;50.864;12.766;2023-02-19T06:10:08;97423.53;;;9.24;100.00
14242;BME280;7205;50.864;12.766;2023-02-19T06:12:35;97430.75;;;9.22;100.00
14242;BME280;7205;50.864;12.766;2023-02-19T06:15:02;97451.34;;;9.18;100.00
14242;BME280;7205;50.864;12.766;2023-02-19T06:17:30;97439.69;;;9.13;100.00
14242;BME280;7205;50.864;12.766;2023-02-19T06:20:01;97446.47;;;9.07;100.00
14242;BME280;7205;50.864;12.766;2023-02-19T06:22:27;97453.06;;;9.03;100.00
14242;BME280;7205;50.864;12.766;2023-02-19T06:24:54;97466.09;;;8.97;100.00
14242;BME280;7205;50.864;12.766;2023-02-19T06:27:21;97464.16;;;8.91;100.00
14242;BME280;7205;50.864;12.766;2023-02-19T06:29:48;97467.59;;;8.83;100.00
14242;BME280;7205;50.864;12.766;2023-02-19T06:32:15;97466.81;;;8.74;100.00
14242;BME280;7205;50.864;12.766;2023-02-19T06:34:41;97470.94;;;8.69;100.00
14242;BME280;7205;50.864;12.766;2023-02-19T06:37:09;97463.53;;;8.64;100.00
14242;BME280;7205;50.864;12.766;2023-02-19T06:39:36;97473.41;;;8.62;100.00
14242;BME280;7205;50.864;12.766;2023-02-19T06:42:03;97479.66;;;8.61;100.00
14242;BME280;7205;50.864;12.766;2023-02-19T06:44:30;97470.94;;;8.61;100.00
14242;BME280;7205;50.864;12.766;2023-02-19T06:46:57;97479.66;;;8.61;100.00
14242;BME280;7205;50.864;12.766;2023-02-19T06:49:24;97498.25;;;8.60;100.00
14242;BME280;7205;50.864;12.766;2023-02-19T06:51:50;97498.25;;;8.60;100.00
14242;BME280;7205;50.864;12.766;2023-02-19T06:54:18;97501.22;;;8.57;100.00
14242;BME280;7205;50.864;12.766;2023-02-19T06:56:45;97501.38;;;8.55;100.00
14242;BME280;7205;50.864;12.766;2023-02-19T06:59:14;97510.09;;;8.56;100.00
14242;BME280;7205;50.864;12.766;2023-02-19T07:01:42;97509.28;;;8.55;100.00
14242;BME280;7205;50.864;12.766;2023-02-19T07:04:10;97511.25;;;8.53;100.00
14242;BME280;7205;50.864;12.766;2023-02-19T07:06:37;97520.13;;;8.52;100.00
14242;BME280;7205;50.864;12.766;2023-02-19T07:09:05;97536.06;;;8.51;100.00
14242;BME280;7205;50.864;12.766;2023-02-19T07:11:35;97523.25;;;8.48;100.00
14242;BME280;7205;50.864;12.766;2023-02-19T07:14:04;97522.59;;;8.46;100.00
14242;BME280;7205;50.864;12.766;2023-02-19T07:16:33;97524.59;;;8.44;100.00
14242;BME280;7205;50.864;12.766;2023-02-19T07:19:01;97537.56;;;8.45;100.00
14242;BME280;7205;50.864;12.766;2023-02-19T07:21:28;97540.22;;;8.45;100.00
14242;BME280;7205;50.864;12.766;2023-02-19T07:23:56;97549.41;;;8.49;100.00
14242;BME280;7205;50.864;12.766;2023-02-19T07:26:23;97555.31;;;8.51;100.00
14242;BME280;7205;50.864;12.766;2023-02-19T07:28:51;97553.19;;;8.55;100.00
14242;BME280;7205;50.864;12.766;2023-02-19T07:31:19;97560.56;;;8.59;100.00
14242;BME280;7205;50.864;12.766;2023-02-19T07:33:47;97558.28;;;8.64;100.00
14242;BME280;7205;50.864;12.766;2023-02-19T07:36:15;97558.94;;;8.66;100.00
14242;BME280;7205;50.864;12.766;2023-02-19T07:38:43;97558.59;;;8.69;100.00
14242;BME280;7205;50.864;12.766;2023-02-19T07:41:10;97558.44;;;8.71;100.00
14242;BME280;7205;50.864;12.766;2023-02-19T07:43:37;97561.22;;;8.69;100.00
14242;BME280;7205;50.864;12.766;2023-02-19T07:46:08;97570.47;;;8.73;100.00
14242;BME280;7205;50.864;12.766;2023-02-19T07:48:35;97566.16;;;8.72;100.00
14242;BME280;7205;50.864;12.766;2023-02-19T07:51:04;97564.84;;;8.76;100.00
14242;BME280;7205;50.864;12.766;2023-02-19T07:53:32;97572.41;;;8.79;100.00
14242;BME280;7205;50.864;12.766;2023-02-19T07:56:00;97574.09;;;8.80;100.00
14242;BME280;7205;50.864;12.766;2023-02-19T07:58:27;97581.16;;;8.80;100.00
14242;BME280;7205;50.864;12.766;2023-02-19T08:00:54;97581.16;;;8.80;100.00
14242;BME280;7205;50.864;12.766;2023-02-19T08:03:22;97583.59;;;8.81;100.00
14242;BME280;7205;50.864;12.766;2023-02-19T08:05:48;97579.84;;;8.84;100.00
14242;BME280;7205;50.864;12.766;2023-02-19T08:08:19;97585.41;;;8.81;100.00
14242;BME280;7205;50.864;12.766;2023-02-19T08:10:46;97581.16;;;8.80;100.00
14242;BME280;7205;50.864;12.766;2023-02-19T08:13:30;97580.47;;;8.78;100.00
14242;BME280;7205;50.864;12.766;2023-02-19T08:16:09;97595.31;;;8.79;100.00
14242;BME280;7205;50.864;12.766;2023-02-19T08:18:38;97589.38;;;8.77;100.00
14242;BME280;7205;50.864;12.766;2023-02-19T08:21:05;97597.44;;;8.75;100.00
14242;BME280;7205;50.864;12.766;2023-02-19T08:23:31;97600.25;;;8.74;100.00
14242;BME280;7205;50.864;12.766;2023-02-19T08:25:59;97601.22;;;8.73;100.00
14242;BME280;7205;50.864;12.766;2023-02-19T08:28:27;97614.38;;;8.73;100.00
14242;BME280;7205;50.864;12.766;2023-02-19T08:30:57;97617.16;;;8.71;100.00
14242;BME280;7205;50.864;12.766;2023-02-19T08:33:25;97614.22;;;8.66;100.00
14242;BME280;7205;50.864;12.766;2023-02-19T08:35:53;97628.38;;;8.65;100.00
14242;BME280;7205;50.864;12.766;2023-02-19T08:38:20;97636.56;;;8.62;100.00
14242;BME280;7205;50.864;12.766;2023-02-19T08:40:47;97645.47;;;8.61;100.00
14242;BME280;7205;50.864;12.766;2023-02-19T08:43:15;97669.31;;;8.60;100.00
14242;BME280;7205;50.864;12.766;2023-02-19T08:45:44;97670.59;;;8.56;100.00
14242;BME280;7205;50.864;12.766;2023-02-19T08:48:13;97705.97;;;8.53;100.00
14242;BME280;7205;50.864;12.766;2023-02-19T08:50:40;97706.25;;;8.42;100.00
14242;BME280;7205;50.864;12.766;2023-02-19T08:53:08;97729.22;;;8.24;100.00
14242;BME280;7205;50.864;12.766;2023-02-19T08:55:36;97720.41;;;8.08;100.00
14242;BME280;7205;50.864;12.766;2023-02-19T08:58:03;97723.66;;;7.94;100.00
14242;BME280;7205;50.864;12.766;2023-02-19T09:00:30;97739.16;;;7.79;100.00
14242;BME280;7205;50.864;12.766;2023-02-19T09:02:57;97738.28;;;7.71;100.00
14242;BME280;7205;50.864;12.766;2023-02-19T09:05:24;97736.59;;;7.61;100.00
14242;BME280;7205;50.864;12.766;2023-02-19T09:07:51;97750.63;;;7.52;100.00
14242;BME280;7205;50.864;12.766;2023-02-19T09:10:19;97755.38;;;7.49;100.00
14242;BME280;7205;50.864;12.766;2023-02-19T09:12:46;97775.19;;;7.43;100.00
14242;BME280;7205;50.864;12.766;2023-02-19T09:15:13;97785.19;;;7.40;100.00
14242;BME280;7205;50.864;12.766;2023-02-19T09:17:42;97791.34;;;7.31;100.00
14242;BME280;7205;50.864;12.766;2023-02-19T09:20:10;97772.06;;;7.22;100.00
14242;BME280;7205;50.864;12.766;2023-02-19T09:22:37;97781.50;;;7.15;100.00
14242;BME280;7205;50.864;12.766;2023-02-19T09:25:04;97822.19;;;7.11;100.00
14242;BME280;7205;50.864;12.766;2023-02-19T09:27:32;97797.34;;;7.06;100.00
14242;BME280;7205;50.864;12.766;2023-02-19T09:29:59;97810.09;;;7.01;100.00
14242;BME280;7205;50.864;12.766;2023-02-19T09:32:29;97807.78;;;6.98;100.00
14242;BME280;7205;50.864;12.766;2023-02-19T09:34:56;97820.94;;;6.88;100.00
14242;BME280;7205;50.864;12.766;2023-02-19T09:37:24;97821.00;;;6.79;100.00
14242;BME280;7205;50.864;12.766;2023-02-19T09:39:52;97847.75;;;6.65;100.00
14242;BME280;7205;50.864;12.766;2023-02-19T09:42:21;97837.19;;;6.47;100.00
14242;BME280;7205;50.864;12.766;2023-02-19T09:44:54;97849.66;;;6.35;100.00
14242;BME280;7205;50.864;12.766;2023-02-19T09:47:23;97867.63;;;6.30;100.00
14242;BME280;7205;50.864;12.766;2023-02-19T09:49:53;97842.78;;;6.25;100.00
14242;BME280;7205;50.864;12.766;2023-02-19T09:52:27;97863.47;;;6.28;100.00
14242;BME280;7205;50.864;12.766;2023-02-19T09:54:58;97877.97;;;6.32;100.00
14242;BME280;7205;50.864;12.766;2023-02-19T09:57:29;97890.38;;;6.30;100.00
14242;BME280;7205;50.864;12.766;2023-02-19T10:00:03;97886.66;;;6.23;100.00
14242;BME280;7205;50.864;12.766;2023-02-19T10:02:31;97892.63;;;6.15;100.00
14242;BME280;7205;50.864;12.766;2023-02-19T10:04:58;97895.94;;;6.08;100.00
14242;BME280;7205;50.864;12.766;2023-02-19T10:07:34;97906.16;;;6.01;100.00
14242;BME280;7205;50.864;12.766;2023-02-19T10:10:22;97909.06;;;5.98;100.00
14242;BME280;7205;50.864;12.766;2023-02-19T10:12:53;97917.09;;;5.97;100.00
14242;BME280;7205;50.864;12.766;2023-02-19T10:15:31;97921.63;;;5.95;100.00
14242;BME280;7205;50.864;12.766;2023-02-19T10:18:01;97932.53;;;6.00;100.00
14242;BME280;7205;50.864;12.766;2023-02-19T10:20:28;97928.66;;;6.04;100.00
14242;BME280;7205;50.864;12.766;2023-02-19T10:22:59;97935.84;;;6.02;100.00
14242;BME280;7205;50.864;12.766;2023-02-19T10:25:28;97936.53;;;6.04;100.00
14242;BME280;7205;50.864;12.766;2023-02-19T10:27:57;97942.59;;;6.04;100.00
14242;BME280;7205;50.864;12.766;2023-02-19T10:30:28;97951.13;;;6.06;100.00
14242;BME280;7205;50.864;12.766;2023-02-19T10:33:01;97955.00;;;6.12;100.00
14242;BME280;7205;50.864;12.766;2023-02-19T10:35:29;97961.22;;;6.11;100.00
14242;BME280;7205;50.864;12.766;2023-02-19T10:38:04;97962.88;;;6.12;100.00
14242;BME280;7205;50.864;12.766;2023-02-19T10:40:32;97964.78;;;6.10;100.00
14242;BME280;7205;50.864;12.766;2023-02-19T10:43:01;97971.16;;;6.07;100.00
14242;BME280;7205;50.864;12.766;2023-02-19T10:45:33;97978.75;;;6.01;100.00
14242;BME280;7205;50.864;12.766;2023-02-19T10:48:05;97974.72;;;5.97;100.00
14242;BME280;7205;50.864;12.766;2023-02-19T10:50:35;97994.59;;;5.90;100.00
14242;BME280;7205;50.864;12.766;2023-02-19T10:53:04;97985.06;;;5.79;100.00
14242;BME280;7205;50.864;12.766;2023-02-19T10:55:32;97993.47;;;5.83;100.00
14242;BME280;7205;50.864;12.766;2023-02-19T10:58:20;98005.50;;;6.04;100.00
14242;BME280;7205;50.864;12.766;2023-02-19T11:01:08;98008.41;;;6.20;100.00
14242;BME280;7205;50.864;12.766;2023-02-19T11:03:35;98009.06;;;6.32;100.00
14242;BME280;7205;50.864;12.766;2023-02-19T11:06:04;98013.34;;;6.43;100.00
14242;BME280;7205;50.864;12.766;2023-02-19T11:08:44;98017.72;;;6.52;100.00
14242;BME280;7205;50.864;12.766;2023-02-19T11:11:23;98021.31;;;6.60;100.00
14242;BME280;7205;50.864;12.766;2023-02-19T11:13:52;98021.56;;;6.67;100.00
14242;BME280;7205;50.864;12.766;2023-02-19T11:16:21;98017.72;;;6.71;100.00
14242;BME280;7205;50.864;12.766;2023-02-19T11:18:53;98016.72;;;6.72;100.00
14242;BME280;7205;50.864;12.766;2023-02-19T11:21:24;98035.78;;;6.74;100.00
14242;BME280;7205;50.864;12.766;2023-02-19T11:23:58;98030.25;;;6.77;100.00
14242;BME280;7205;50.864;12.766;2023-02-19T11:26:30;98028.88;;;6.82;100.00
14242;BME280;7205;50.864;12.766;2023-02-19T11:29:01;98028.56;;;6.85;100.00
14242;BME280;7205;50.864;12.766;2023-02-19T11:31:38;98027.56;;;6.96;100.00
14242;BME280;7205;50.864;12.766;2023-02-19T11:34:24;98040.91;;;7.12;100.00
14242;BME280;7205;50.864;12.766;2023-02-19T11:37:07;98031.44;;;7.28;100.00
14242;BME280;7205;50.864;12.766;2023-02-19T11:39:35;98037.47;;;7.38;100.00
14242;BME280;7205;50.864;12.766;2023-02-19T11:42:26;98050.75;;;7.46;100.00
14242;BME280;7205;50.864;12.766;2023-02-19T11:45:29;98046.97;;;7.49;100.00
14242;BME280;7205;50.864;12.766;2023-02-19T11:48:25;98044.94;;;7.43;100.00
14242;BME280;7205;50.864;12.766;2023-02-19T11:51:08;98044.47;;;7.30;100.00
14242;BME280;7205;50.864;12.766;2023-02-19T11:53:44;98045.47;;;7.19;100.00
14242;BME280;7205;50.864;12.766;2023-02-19T11:56:18;98047.84;;;7.13;100.00
14242;BME280;7205;50.864;12.766;2023-02-19T11:58:54;98046.06;;;7.04;99.33
14242;BME280;7205;50.864;12.766;2023-02-19T12:01:25;98052.31;;;6.93;98.65
14242;BME280;7205;50.864;12.766;2023-02-19T12:07:06;98046.53;;;6.80;97.28
14242;BME280;7205;50.864;12.766;2023-02-19T12:09:48;98048.47;;;6.88;98.54
14242;BME280;7205;50.864;12.766;2023-02-19T12:12:32;98050.78;;;7.00;99.06
14242;BME280;7205;50.864;12.766;2023-02-19T12:15:17;98067.56;;;7.17;99.25
14242;BME280;7205;50.864;12.766;2023-02-19T12:17:57;98062.31;;;7.26;98.25
14242;BME280;7205;50.864;12.766;2023-02-19T12:20:32;98064.09;;;7.26;95.77
14242;BME280;7205;50.864;12.766;2023-02-19T12:23:23;98060.78;;;7.24;93.89
14242;BME280;7205;50.864;12.766;2023-02-19T12:25:56;98060.78;;;7.24;92.13
14242;BME280;7205;50.864;12.766;2023-02-19T12:28:46;98053.59;;;7.26;91.57
14242;BME280;7205;50.864;12.766;2023-02-19T12:31:42;98053.97;;;7.31;90.95
14242;BME280;7205;50.864;12.766;2023-02-19T12:34:30;98064.75;;;7.37;89.82
14242;BME280;7205;50.864;12.766;2023-02-19T12:37:10;98057.53;;;7.39;88.99
14242;BME280;7205;50.864;12.766;2023-02-19T12:39:46;98074.66;;;7.43;88.99
14242;BME280;7205;50.864;12.766;2023-02-19T12:42:40;98064.16;;;7.43;88.23
14242;BME280;7205;50.864;12.766;2023-02-19T12:45:16;98069.28;;;7.45;87.24
14242;BME280;7205;50.864;12.766;2023-02-19T12:47:54;98062.22;;;7.45;86.39
14242;BME280;7205;50.864;12.766;2023-02-19T12:50:25;98070.63;;;7.49;86.09
14242;BME280;7205;50.864;12.766;2023-02-19T12:52:57;98066.34;;;7.48;84.97
14242;BME280;7205;50.864;12.766;2023-02-19T12:55:31;98073.41;;;7.47;84.39
14242;BME280;7205;50.864;12.766;2023-02-19T12:58:02;98067.47;;;7.45;84.31
14242;BME280;7205;50.864;12.766;2023-02-19T13:00:34;98062.06;;;7.47;83.94
14242;BME280;7205;50.864;12.766;2023-02-19T13:03:08;98071.47;;;7.49;83.66
14242;BME280;7205;50.864;12.766;2023-02-19T13:05:42;98080.03;;;7.51;83.40
14242;BME280;7205;50.864;12.766;2023-02-19T13:08:14;98077.25;;;7.53;83.56
14242;BME280;7205;50.864;12.766;2023-02-19T13:10:52;98074.78;;;7.51;83.39
14242;BME280;7205;50.864;12.766;2023-02-19T13:13:23;98075.59;;;7.52;83.18
14242;BME280;7205;50.864;12.766;2023-02-19T13:15:52;98088.56;;;7.53;82.65
14242;BME280;7205;50.864;12.766;2023-02-19T13:18:25;98076.44;;;7.52;82.15
14242;BME280;7205;50.864;12.766;2023-02-19T13:20:54;98087.78;;;7.53;81.91
14242;BME280;7205;50.864;12.766;2023-02-19T13:23:23;98071.63;;;7.48;79.84
14242;BME280;7205;50.864;12.766;2023-02-19T13:26:31;98078.25;;;7.42;78.93
14242;BME280;7205;50.864;12.766;2023-02-19T13:29:12;98084.66;;;7.40;78.80
14242;BME280;7205;50.864;12.766;2023-02-19T13:31:53;98090.03;;;7.38;78.24